sensor_id;sensor_type;location;lat;lon;timestamp;temperature;humidity
7000;DHT22;3540;53.242;10.408;2023-04-15T00:00:42;7.30;6.70
7000;DHT22;3540;53.242;10.408;2023-04-15T00:03:07;7.30;99.90
7000;DHT22;3540;53.242;10.408;2023-04-15T00:05:33;7.20;1.00
7000;DHT22;3540;53.242;10.408;2023-04-15T00:07:59;7.20;1.00
7000;DHT22;3540;53.242;10.408;2023-04-15T00:10:26;7.20;1.00
7000;DHT22;3540;53.242;10.408;2023-04-15T00:12:51;7.20;99.90
7000;DHT22;3540;53.242;10.408;2023-04-15T00:15:17;7.20;1.00
7000;DHT22;3540;53.242;10.408;2023-04-15T00:17:43;7.20;66.70
7000;DHT22;3540;53.242;10.408;2023-04-15T00:20:09;7.20;1.00
7000;DHT22;3540;53.242;10.408;2023-04-15T00:22:35;7.10;1.00
7000;DHT22;3540;53.242;10.408;2023-04-15T00:25:01;7.10;1.00
7000;DHT22;3540;53.242;10.408;2023-04-15T00:27:26;7.10;99.90
7000;DHT22;3540;53.242;10.408;2023-04-15T00:29:52;7.00;1.00
7000;DHT22;3540;53.242;10.408;2023-04-15T00:32:18;7.00;1.00
7000;DHT22;3540;53.242;10.408;2023-04-15T00:34:44;7.10;1.00
7000;DHT22;3540;53.242;10.408;2023-04-15T00:37:10;7.00;26.20
7000;DHT22;3540;53.242;10.408;2023-04-15T00:39:37;7.10;51.00
7000;DHT22;3540;53.242;10.408;2023-04-15T00:42:04;7.10;99.90
7000;DHT22;3540;53.242;10.408;2023-04-15T00:44:30;7.00;99.90
7000;DHT22;3540;53.242;10.408;2023-04-15T00:46:56;7.00;99.90
7000;DHT22;3540;53.242;10.408;2023-04-15T00:49:22;7.00;99.90
7000;DHT22;3540;53.242;10.408;2023-04-15T00:51:48;7.00;1.00
7000;DHT22;3540;53.242;10.408;2023-04-15T00:54:13;6.90;1.00
7000;DHT22;3540;53.242;10.408;2023-04-15T00:56:39;7.00;1.00
7000;DHT22;3540;53.242;10.408;2023-04-15T00:59:05;6.90;1.00
7000;DHT22;3540;53.242;10.408;2023-04-15T01:01:33;6.90;87.70
7000;DHT22;3540;53.242;10.408;2023-04-15T01:03:59;6.90;99.90
7000;DHT22;3540;53.242;10.408;2023-04-15T01:06:25;6.90;99.90
7000;DHT22;3540;53.242;10.408;2023-04-15T01:08:56;6.90;99.90
7000;DHT22;3540;53.242;10.408;2023-04-15T01:11:22;6.90;1.00
7000;DHT22;3540;53.242;10.408;2023-04-15T01:13:50;6.90;1.00
7000;DHT22;3540;53.242;10.408;2023-04-15T01:16:16;6.90;1.00
7000;DHT22;3540;53.242;10.408;2023-04-15T01:18:42;6.90;1.00
7000;DHT22;3540;53.242;10.408;2023-04-15T01:21:08;6.90;1.00
7000;DHT22;3540;53.242;10.408;2023-04-15T01:23:36;6.90;1.00
7000;DHT22;3540;53.242;10.408;2023-04-15T01:26:03;6.90;1.00
7000;DHT22;3540;53.242;10.408;2023-04-15T01:28:30;7.00;1.00
7000;DHT22;3540;53.242;10.408;2023-04-15T01:31:12;6.90;1.00
7000;DHT22;3540;53.242;10.408;2023-04-15T01:33:42;6.90;1.00
7000;DHT22;3540;53.242;10.408;2023-04-15T01:36:08;6.90;1.00
7000;DHT22;3540;53.242;10.408;2023-04-15T01:38:36;6.90;1.00
7000;DHT22;3540;53.242;10.408;2023-04-15T01:41:01;6.90;1.00
7000;DHT22;3540;53.242;10.408;2023-04-15T01:43:29;6.90;1.00
7000;DHT22;3540;53.242;10.408;2023-04-15T01:45:54;6.90;1.00
7000;DHT22;3540;53.242;10.408;2023-04-15T01:48:21;6.90;1.00
7000;DHT22;3540;53.242;10.408;2023-04-15T01:50:47;7.00;1.00
7000;DHT22;3540;53.242;10.408;2023-04-15T01:53:13;6.90;1.00
7000;DHT22;3540;53.242;10.408;2023-04-15T01:55:39;7.00;1.00
7000;DHT22;3540;53.242;10.408;2023-04-15T01:58:05;7.00;1.00
7000;DHT22;3540;53.242;10.408;2023-04-15T02:00:31;6.90;1.00
7000;DHT22;3540;53.242;10.408;2023-04-15T02:02:57;6.90;1.00
7000;DHT22;3540;53.242;10.408;2023-04-15T02:05:23;6.90;1.00
7000;DHT22;3540;53.242;10.408;2023-04-15T02:07:49;6.90;1.00
7000;DHT22;3540;53.242;10.408;2023-04-15T02:10:15;6.90;1.00
7000;DHT22;3540;53.242;10.408;2023-04-15T02:12:41;6.90;1.00
7000;DHT22;3540;53.242;10.408;2023-04-15T02:15:07;6.90;1.00
7000;DHT22;3540;53.242;10.408;2023-04-15T02:17:34;7.00;1.00
7000;DHT22;3540;53.242;10.408;2023-04-15T02:20:00;6.90;1.00
7000;DHT22;3540;53.242;10.408;2023-04-15T02:22:26;6.90;1.00
7000;DHT22;3540;53.242;10.408;2023-04-15T02:24:52;7.00;1.00
7000;DHT22;3540;53.242;10.408;2023-04-15T02:27:18;7.00;1.00
7000;DHT22;3540;53.242;10.408;2023-04-15T02:29:44;6.90;1.00
7000;DHT22;3540;53.242;10.408;2023-04-15T02:32:10;7.00;1.00
7000;DHT22;3540;53.242;10.408;2023-04-15T02:34:37;7.00;1.00
7000;DHT22;3540;53.242;10.408;2023-04-15T02:37:06;7.00;1.00
7000;DHT22;3540;53.242;10.408;2023-04-15T02:39:32;7.00;1.00
7000;DHT22;3540;53.242;10.408;2023-04-15T02:41:58;7.00;1.00
7000;DHT22;3540;53.242;10.408;2023-04-15T02:44:25;7.00;1.00
7000;DHT22;3540;53.242;10.408;2023-04-15T02:46:52;6.90;1.00
7000;DHT22;3540;53.242;10.408;2023-04-15T02:49:22;6.90;1.00
7000;DHT22;3540;53.242;10.408;2023-04-15T02:51:48;7.00;3.90
7000;DHT22;3540;53.242;10.408;2023-04-15T02:54:21;6.90;15.70
7000;DHT22;3540;53.242;10.408;2023-04-15T02:56:49;6.90;27.30
7000;DHT22;3540;53.242;10.408;2023-04-15T02:59:15;6.90;48.70
7000;DHT22;3540;53.242;10.408;2023-04-15T03:01:41;7.00;69.10
7000;DHT22;3540;53.242;10.408;2023-04-15T03:04:06;6.90;80.70
7000;DHT22;3540;53.242;10.408;2023-04-15T03:06:33;6.90;91.30
7000;DHT22;3540;53.242;10.408;2023-04-15T03:08:59;6.90;99.90
7000;DHT22;3540;53.242;10.408;2023-04-15T03:11:27;7.00;99.90
7000;DHT22;3540;53.242;10.408;2023-04-15T03:13:53;6.90;99.90
7000;DHT22;3540;53.242;10.408;2023-04-15T03:16:19;7.00;99.90
7000;DHT22;3540;53.242;10.408;2023-04-15T03:18:44;7.00;99.90
7000;DHT22;3540;53.242;10.408;2023-04-15T03:21:10;7.10;99.90
7000;DHT22;3540;53.242;10.408;2023-04-15T03:23:35;7.00;99.90
7000;DHT22;3540;53.242;10.408;2023-04-15T03:26:02;7.10;99.90
7000;DHT22;3540;53.242;10.408;2023-04-15T03:28:27;7.10;99.90
7000;DHT22;3540;53.242;10.408;2023-04-15T03:30:54;7.00;99.90
7000;DHT22;3540;53.242;10.408;2023-04-15T03:33:20;7.10;99.90
7000;DHT22;3540;53.242;10.408;2023-04-15T03:35:46;7.10;99.90
7000;DHT22;3540;53.242;10.408;2023-04-15T03:38:11;7.10;99.90
7000;DHT22;3540;53.242;10.408;2023-04-15T03:40:39;7.10;99.90
7000;DHT22;3540;53.242;10.408;2023-04-15T03:43:05;7.10;99.90
7000;DHT22;3540;53.242;10.408;2023-04-15T03:45:31;7.10;99.90
7000;DHT22;3540;53.242;10.408;2023-04-15T03:47:57;7.10;99.90
7000;DHT22;3540;53.242;10.408;2023-04-15T03:50:22;7.10;99.90
7000;DHT22;3540;53.242;10.408;2023-04-15T03:52:48;7.10;99.90
7000;DHT22;3540;53.242;10.408;2023-04-15T03:55:14;7.20;99.90
7000;DHT22;3540;53.242;10.408;2023-04-15T03:57:40;7.10;99.90
7000;DHT22;3540;53.242;10.408;2023-04-15T04:00:06;7.10;99.90
7000;DHT22;3540;53.242;10.408;2023-04-15T04:02:33;7.10;99.90
7000;DHT22;3540;53.242;10.408;2023-04-15T04:04:59;7.10;99.90
7000;DHT22;3540;53.242;10.408;2023-04-15T04:07:25;7.10;99.90
7000;DHT22;3540;53.242;10.408;2023-04-15T04:09:50;7.20;99.90
7000;DHT22;3540;53.242;10.408;2023-04-15T04:12:16;7.20;99.90
7000;DHT22;3540;53.242;10.408;2023-04-15T04:14:42;7.20;99.90
7000;DHT22;3540;53.242;10.408;2023-04-15T04:17:07;7.20;99.90
7000;DHT22;3540;53.242;10.408;2023-04-15T04:19:33;7.20;99.90
7000;DHT22;3540;53.242;10.408;2023-04-15T04:21:59;7.30;99.90
7000;DHT22;3540;53.242;10.408;2023-04-15T04:24:25;7.20;99.90
7000;DHT22;3540;53.242;10.408;2023-04-15T04:26:51;7.20;99.90
7000;DHT22;3540;53.242;10.408;2023-04-15T04:29:16;7.20;99.90
7000;DHT22;3540;53.242;10.408;2023-04-15T04:31:42;7.20;99.90
7000;DHT22;3540;53.242;10.408;2023-04-15T04:34:08;7.30;99.90
7000;DHT22;3540;53.242;10.408;2023-04-15T04:36:33;7.30;99.90
7000;DHT22;3540;53.242;10.408;2023-04-15T04:38:59;7.30;99.90
7000;DHT22;3540;53.242;10.408;2023-04-15T04:41:25;7.40;99.90
7000;DHT22;3540;53.242;10.408;2023-04-15T04:43:51;7.40;99.90
7000;DHT22;3540;53.242;10.408;2023-04-15T04:46:17;7.40;99.90
7000;DHT22;3540;53.242;10.408;2023-04-15T04:48:42;7.30;99.90
7000;DHT22;3540;53.242;10.408;2023-04-15T04:51:08;7.30;99.90
7000;DHT22;3540;53.242;10.408;2023-04-15T04:53:34;7.30;99.90
7000;DHT22;3540;53.242;10.408;2023-04-15T04:56:00;7.30;99.90
7000;DHT22;3540;53.242;10.408;2023-04-15T04:58:26;7.30;99.90
7000;DHT22;3540;53.242;10.408;2023-04-15T05:00:51;7.40;99.90
7000;DHT22;3540;53.242;10.408;2023-04-15T05:03:17;7.30;99.90
7000;DHT22;3540;53.242;10.408;2023-04-15T05:05:43;7.40;99.90
7000;DHT22;3540;53.242;10.408;2023-04-15T05:08:08;7.50;99.90
7000;DHT22;3540;53.242;10.408;2023-04-15T05:10:34;7.50;99.90
7000;DHT22;3540;53.242;10.408;2023-04-15T05:13:00;7.40;99.90
7000;DHT22;3540;53.242;10.408;2023-04-15T05:15:26;7.50;99.90
7000;DHT22;3540;53.242;10.408;2023-04-15T05:17:51;7.50;99.90
7000;DHT22;3540;53.242;10.408;2023-04-15T05:20:17;7.50;99.90
7000;DHT22;3540;53.242;10.408;2023-04-15T05:22:42;7.40;99.90
7000;DHT22;3540;53.242;10.408;2023-04-15T05:25:08;7.40;99.90
7000;DHT22;3540;53.242;10.408;2023-04-15T05:27:34;7.50;99.90
7000;DHT22;3540;53.242;10.408;2023-04-15T05:30:01;7.50;99.90
7000;DHT22;3540;53.242;10.408;2023-04-15T05:32:26;7.60;99.90
7000;DHT22;3540;53.242;10.408;2023-04-15T05:34:52;7.40;99.90
7000;DHT22;3540;53.242;10.408;2023-04-15T05:37:17;7.50;99.90
7000;DHT22;3540;53.242;10.408;2023-04-15T05:39:45;7.50;99.90
7000;DHT22;3540;53.242;10.408;2023-04-15T05:42:11;7.40;99.90
7000;DHT22;3540;53.242;10.408;2023-04-15T05:44:36;7.60;99.90
7000;DHT22;3540;53.242;10.408;2023-04-15T05:47:02;7.50;99.90
7000;DHT22;3540;53.242;10.408;2023-04-15T05:49:28;7.50;99.90
7000;DHT22;3540;53.242;10.408;2023-04-15T05:51:54;7.50;99.90
7000;DHT22;3540;53.242;10.408;2023-04-15T05:54:20;7.50;99.90
7000;DHT22;3540;53.242;10.408;2023-04-15T05:56:46;7.70;99.90
7000;DHT22;3540;53.242;10.408;2023-04-15T05:59:12;7.70;99.90
7000;DHT22;3540;53.242;10.408;2023-04-15T06:01:38;7.70;99.90
7000;DHT22;3540;53.242;10.408;2023-04-15T06:04:04;7.60;99.90
7000;DHT22;3540;53.242;10.408;2023-04-15T06:06:30;7.60;99.90
7000;DHT22;3540;53.242;10.408;2023-04-15T06:08:57;7.70;99.90
7000;DHT22;3540;53.242;10.408;2023-04-15T06:11:22;7.60;99.90
7000;DHT22;3540;53.242;10.408;2023-04-15T06:13:48;7.70;99.90
7000;DHT22;3540;53.242;10.408;2023-04-15T06:16:14;7.70;99.90
7000;DHT22;3540;53.242;10.408;2023-04-15T06:18:40;7.70;99.90
7000;DHT22;3540;53.242;10.408;2023-04-15T06:21:05;7.70;99.90
7000;DHT22;3540;53.242;10.408;2023-04-15T06:23:33;7.70;99.90
7000;DHT22;3540;53.242;10.408;2023-04-15T06:26:00;7.70;99.90
7000;DHT22;3540;53.242;10.408;2023-04-15T06:28:26;7.60;99.90
7000;DHT22;3540;53.242;10.408;2023-04-15T06:30:52;7.60;99.90
7000;DHT22;3540;53.242;10.408;2023-04-15T06:33:18;7.60;99.90
7000;DHT22;3540;53.242;10.408;2023-04-15T06:35:43;7.70;99.90
7000;DHT22;3540;53.242;10.408;2023-04-15T06:38:09;7.70;99.90
7000;DHT22;3540;53.242;10.408;2023-04-15T06:40:35;7.60;99.90
7000;DHT22;3540;53.242;10.408;2023-04-15T06:43:01;7.50;99.90
7000;DHT22;3540;53.242;10.408;2023-04-15T06:45:26;7.60;99.90
7000;DHT22;3540;53.242;10.408;2023-04-15T06:47:52;7.60;99.90
7000;DHT22;3540;53.242;10.408;2023-04-15T06:50:18;7.60;99.90
7000;DHT22;3540;53.242;10.408;2023-04-15T06:52:43;7.60;99.90
7000;DHT22;3540;53.242;10.408;2023-04-15T06:55:09;7.60;99.90
7000;DHT22;3540;53.242;10.408;2023-04-15T06:57:35;7.60;99.90
7000;DHT22;3540;53.242;10.408;2023-04-15T07:00:01;7.60;99.90
7000;DHT22;3540;53.242;10.408;2023-04-15T07:02:26;7.60;99.90
7000;DHT22;3540;53.242;10.408;2023-04-15T07:04:52;7.60;99.90
7000;DHT22;3540;53.242;10.408;2023-04-15T07:07:17;7.60;99.90
7000;DHT22;3540;53.242;10.408;2023-04-15T07:09:43;7.70;99.90
7000;DHT22;3540;53.242;10.408;2023-04-15T07:12:09;7.70;99.90
7000;DHT22;3540;53.242;10.408;2023-04-15T07:14:35;7.60;99.90
7000;DHT22;3540;53.242;10.408;2023-04-15T07:17:00;7.70;99.90
7000;DHT22;3540;53.242;10.408;2023-04-15T07:19:26;7.80;99.90
7000;DHT22;3540;53.242;10.408;2023-04-15T07:21:52;7.80;99.90
7000;DHT22;3540;53.242;10.408;2023-04-15T07:24:18;7.80;99.90
7000;DHT22;3540;53.242;10.408;2023-04-15T07:26:45;7.80;99.90
7000;DHT22;3540;53.242;10.408;2023-04-15T07:29:10;7.80;99.90
7000;DHT22;3540;53.242;10.408;2023-04-15T07:31:36;7.80;99.90
7000;DHT22;3540;53.242;10.408;2023-04-15T07:34:02;7.90;99.90
7000;DHT22;3540;53.242;10.408;2023-04-15T07:36:29;7.80;99.90
7000;DHT22;3540;53.242;10.408;2023-04-15T07:38:55;7.80;99.90
7000;DHT22;3540;53.242;10.408;2023-04-15T07:41:22;7.90;99.90
7000;DHT22;3540;53.242;10.408;2023-04-15T07:43:48;8.00;99.90
7000;DHT22;3540;53.242;10.408;2023-04-15T07:46:14;8.10;99.90
7000;DHT22;3540;53.242;10.408;2023-04-15T07:48:40;8.10;99.90
7000;DHT22;3540;53.242;10.408;2023-04-15T07:51:07;8.10;99.90
7000;DHT22;3540;53.242;10.408;2023-04-15T07:53:32;8.10;99.90
7000;DHT22;3540;53.242;10.408;2023-04-15T07:55:58;8.10;99.90
7000;DHT22;3540;53.242;10.408;2023-04-15T07:58:24;8.20;99.90
7000;DHT22;3540;53.242;10.408;2023-04-15T08:00:50;8.20;99.90
7000;DHT22;3540;53.242;10.408;2023-04-15T08:03:16;8.20;99.90
7000;DHT22;3540;53.242;10.408;2023-04-15T08:05:42;8.30;99.90
7000;DHT22;3540;53.242;10.408;2023-04-15T08:08:07;8.30;99.90
7000;DHT22;3540;53.242;10.408;2023-04-15T08:10:33;8.20;99.90
7000;DHT22;3540;53.242;10.408;2023-04-15T08:12:59;8.30;99.90
7000;DHT22;3540;53.242;10.408;2023-04-15T08:15:25;8.30;99.90
7000;DHT22;3540;53.242;10.408;2023-04-15T08:17:51;8.30;99.90
7000;DHT22;3540;53.242;10.408;2023-04-15T08:20:17;8.30;99.90
7000;DHT22;3540;53.242;10.408;2023-04-15T08:22:43;8.40;99.90
7000;DHT22;3540;53.242;10.408;2023-04-15T08:25:09;8.50;99.90
7000;DHT22;3540;53.242;10.408;2023-04-15T08:27:34;8.50;99.90
7000;DHT22;3540;53.242;10.408;2023-04-15T08:30:00;8.60;99.90
7000;DHT22;3540;53.242;10.408;2023-04-15T08:32:26;8.70;99.90
7000;DHT22;3540;53.242;10.408;2023-04-15T08:34:52;8.50;23.30
7000;DHT22;3540;53.242;10.408;2023-04-15T08:37:18;8.50;1.00
7000;DHT22;3540;53.242;10.408;2023-04-15T08:39:44;8.50;1.00
7000;DHT22;3540;53.242;10.408;2023-04-15T08:42:14;8.50;1.00
7000;DHT22;3540;53.242;10.408;2023-04-15T08:44:41;8.50;1.00
7000;DHT22;3540;53.242;10.408;2023-04-15T08:47:07;8.50;1.00
7000;DHT22;3540;53.242;10.408;2023-04-15T08:49:38;8.50;1.00
7000;DHT22;3540;53.242;10.408;2023-04-15T08:52:05;8.60;1.00
7000;DHT22;3540;53.242;10.408;2023-04-15T08:54:31;8.60;1.00
7000;DHT22;3540;53.242;10.408;2023-04-15T08:56:57;8.80;1.00
7000;DHT22;3540;53.242;10.408;2023-04-15T08:59:23;8.60;1.00
7000;DHT22;3540;53.242;10.408;2023-04-15T09:01:50;8.60;99.90
7000;DHT22;3540;53.242;10.408;2023-04-15T09:04:16;8.70;99.90
7000;DHT22;3540;53.242;10.408;2023-04-15T09:06:42;8.80;1.00
7000;DHT22;3540;53.242;10.408;2023-04-15T09:09:08;8.80;1.00
7000;DHT22;3540;53.242;10.408;2023-04-15T09:11:34;8.90;1.00
7000;DHT22;3540;53.242;10.408;2023-04-15T09:14:00;8.90;99.90
7000;DHT22;3540;53.242;10.408;2023-04-15T09:16:26;8.90;99.90
7000;DHT22;3540;53.242;10.408;2023-04-15T09:18:53;8.90;1.00
7000;DHT22;3540;53.242;10.408;2023-04-15T09:21:19;8.90;1.50
7000;DHT22;3540;53.242;10.408;2023-04-15T09:23:59;9.00;1.00
7000;DHT22;3540;53.242;10.408;2023-04-15T09:26:36;9.20;1.00
7000;DHT22;3540;53.242;10.408;2023-04-15T09:29:09;9.30;99.90
7000;DHT22;3540;53.242;10.408;2023-04-15T09:31:38;9.40;99.90
7000;DHT22;3540;53.242;10.408;2023-04-15T09:34:04;9.40;97.80
7000;DHT22;3540;53.242;10.408;2023-04-15T09:36:52;9.30;99.90
7000;DHT22;3540;53.242;10.408;2023-04-15T09:39:18;9.30;99.90
7000;DHT22;3540;53.242;10.408;2023-04-15T09:41:44;9.40;99.90
7000;DHT22;3540;53.242;10.408;2023-04-15T09:44:23;9.50;99.90
7000;DHT22;3540;53.242;10.408;2023-04-15T09:46:49;9.50;99.90
7000;DHT22;3540;53.242;10.408;2023-04-15T09:49:15;9.50;36.90
7000;DHT22;3540;53.242;10.408;2023-04-15T09:51:42;9.70;1.00
7000;DHT22;3540;53.242;10.408;2023-04-15T09:54:08;9.70;1.00
7000;DHT22;3540;53.242;10.408;2023-04-15T09:56:38;9.70;1.00
7000;DHT22;3540;53.242;10.408;2023-04-15T09:59:07;9.70;1.00
7000;DHT22;3540;53.242;10.408;2023-04-15T10:01:33;9.80;1.00
7000;DHT22;3540;53.242;10.408;2023-04-15T10:04:02;9.80;1.00
7000;DHT22;3540;53.242;10.408;2023-04-15T10:06:28;9.60;1.00
7000;DHT22;3540;53.242;10.408;2023-04-15T10:08:56;9.60;1.00
7000;DHT22;3540;53.242;10.408;2023-04-15T10:11:23;9.60;1.00
7000;DHT22;3540;53.242;10.408;2023-04-15T10:13:50;9.70;1.00
7000;DHT22;3540;53.242;10.408;2023-04-15T10:16:19;10.00;1.00
7000;DHT22;3540;53.242;10.408;2023-04-15T10:18:47;10.20;1.00
7000;DHT22;3540;53.242;10.408;2023-04-15T10:21:15;10.20;1.00
7000;DHT22;3540;53.242;10.408;2023-04-15T10:23:44;10.30;1.00
7000;DHT22;3540;53.242;10.408;2023-04-15T10:26:11;10.50;1.00
7000;DHT22;3540;53.242;10.408;2023-04-15T10:28:39;10.70;1.00
7000;DHT22;3540;53.242;10.408;2023-04-15T10:31:06;11.00;1.00
7000;DHT22;3540;53.242;10.408;2023-04-15T10:33:32;10.90;99.90
7000;DHT22;3540;53.242;10.408;2023-04-15T10:35:59;10.70;99.90
7000;DHT22;3540;53.242;10.408;2023-04-15T10:38:33;10.70;99.90
7000;DHT22;3540;53.242;10.408;2023-04-15T10:41:25;10.70;99.90
7000;DHT22;3540;53.242;10.408;2023-04-15T10:43:56;10.60;99.90
7000;DHT22;3540;53.242;10.408;2023-04-15T10:46:44;11.00;99.90
7000;DHT22;3540;53.242;10.408;2023-04-15T10:49:23;11.20;99.90
7000;DHT22;3540;53.242;10.408;2023-04-15T10:51:56;11.40;99.90
7000;DHT22;3540;53.242;10.408;2023-04-15T10:59:38;11.70;25.50
7000;DHT22;3540;53.242;10.408;2023-04-15T11:05:03;12.40;1.00
7000;DHT22;3540;53.242;10.408;2023-04-15T11:07:54;12.40;1.00
7000;DHT22;3540;53.242;10.408;2023-04-15T11:12:59;12.60;1.00
7000;DHT22;3540;53.242;10.408;2023-04-15T11:20:42;12.40;1.00
7000;DHT22;3540;53.242;10.408;2023-04-15T11:23:09;12.40;1.00
7000;DHT22;3540;53.242;10.408;2023-04-15T11:25:36;12.70;1.00
7000;DHT22;3540;53.242;10.408;2023-04-15T11:28:02;12.80;1.00
7000;DHT22;3540;53.242;10.408;2023-04-15T11:30:30;13.00;1.00
7000;DHT22;3540;53.242;10.408;2023-04-15T11:33:05;12.90;1.00
7000;DHT22;3540;53.242;10.408;2023-04-15T11:35:32;12.60;1.00
7000;DHT22;3540;53.242;10.408;2023-04-15T11:38:02;12.70;1.00
7000;DHT22;3540;53.242;10.408;2023-04-15T11:40:29;12.90;1.00
7000;DHT22;3540;53.242;10.408;2023-04-15T11:45:35;12.60;1.00
7000;DHT22;3540;53.242;10.408;2023-04-15T11:48:09;12.70;1.00
7000;DHT22;3540;53.242;10.408;2023-04-15T11:50:37;12.80;1.00
7000;DHT22;3540;53.242;10.408;2023-04-15T11:53:09;13.00;1.00
7000;DHT22;3540;53.242;10.408;2023-04-15T11:55:49;13.00;1.00
7000;DHT22;3540;53.242;10.408;2023-04-15T11:58:20;12.70;1.00
7000;DHT22;3540;53.242;10.408;2023-04-15T12:00:47;12.80;1.00
7000;DHT22;3540;53.242;10.408;2023-04-15T12:03:23;13.00;1.00
7000;DHT22;3540;53.242;10.408;2023-04-15T12:06:07;13.30;1.00
7000;DHT22;3540;53.242;10.408;2023-04-15T12:08:52;13.10;1.00
7000;DHT22;3540;53.242;10.408;2023-04-15T12:11:27;12.90;1.00
7000;DHT22;3540;53.242;10.408;2023-04-15T12:14:17;12.50;1.00
7000;DHT22;3540;53.242;10.408;2023-04-15T12:16:45;12.50;1.00
7000;DHT22;3540;53.242;10.408;2023-04-15T12:19:13;12.60;1.00
7000;DHT22;3540;53.242;10.408;2023-04-15T12:21:43;12.60;1.00
7000;DHT22;3540;53.242;10.408;2023-04-15T12:24:10;12.60;1.00
7000;DHT22;3540;53.242;10.408;2023-04-15T12:26:44;12.60;1.00
7000;DHT22;3540;53.242;10.408;2023-04-15T12:29:11;12.30;1.00
7000;DHT22;3540;53.242;10.408;2023-04-15T12:31:50;12.60;1.00
7000;DHT22;3540;53.242;10.408;2023-04-15T12:34:17;12.80;1.00
7000;DHT22;3540;53.242;10.408;2023-04-15T12:36:43;12.90;1.00
7000;DHT22;3540;53.242;10.408;2023-04-15T12:39:08;13.00;1.00
7000;DHT22;3540;53.242;10.408;2023-04-15T12:41:34;13.20;1.00
7000;DHT22;3540;53.242;10.408;2023-04-15T12:44:00;13.30;1.00
7000;DHT22;3540;53.242;10.408;2023-04-15T12:46:26;13.30;1.00
7000;DHT22;3540;53.242;10.408;2023-04-15T12:48:52;13.50;1.00
7000;DHT22;3540;53.242;10.408;2023-04-15T12:51:18;13.30;1.00
7000;DHT22;3540;53.242;10.408;2023-04-15T12:53:46;13.60;1.00
7000;DHT22;3540;53.242;10.408;2023-04-15T12:56:12;13.50;1.00
7000;DHT22;3540;53.242;10.408;2023-04-15T12:58:38;13.30;1.00
7000;DHT22;3540;53.242;10.408;2023-04-15T13:01:04;13.10;1.00
7000;DHT22;3540;53.242;10.408;2023-04-15T13:03:30;13.00;1.00
7000;DHT22;3540;53.242;10.408;2023-04-15T13:05:56;12.90;1.00
7000;DHT22;3540;53.242;10.408;2023-04-15T13:08:22;12.80;1.00
7000;DHT22;3540;53.242;10.408;2023-04-15T13:10:48;12.90;1.00
7000;DHT22;3540;53.242;10.408;2023-04-15T13:13:13;13.10;1.00
7000;DHT22;3540;53.242;10.408;2023-04-15T13:15:40;13.10;1.00
7000;DHT22;3540;53.242;10.408;2023-04-15T13:18:06;13.20;1.00
7000;DHT22;3540;53.242;10.408;2023-04-15T13:20:31;13.10;1.00
7000;DHT22;3540;53.242;10.408;2023-04-15T13:22:57;12.90;1.00
7000;DHT22;3540;53.242;10.408;2023-04-15T13:25:23;12.90;1.00
7000;DHT22;3540;53.242;10.408;2023-04-15T13:27:49;13.00;1.00
7000;DHT22;3540;53.242;10.408;2023-04-15T13:30:14;12.90;1.00
7000;DHT22;3540;53.242;10.408;2023-04-15T13:32:40;12.90;1.00
7000;DHT22;3540;53.242;10.408;2023-04-15T13:35:06;12.80;1.00
7000;DHT22;3540;53.242;10.408;2023-04-15T13:37:31;12.80;1.00
7000;DHT22;3540;53.242;10.408;2023-04-15T13:39:57;12.80;1.00
7000;DHT22;3540;53.242;10.408;2023-04-15T13:42:23;12.80;1.00
7000;DHT22;3540;53.242;10.408;2023-04-15T13:44:49;12.80;1.00
7000;DHT22;3540;53.242;10.408;2023-04-15T13:47:18;12.80;1.00
7000;DHT22;3540;53.242;10.408;2023-04-15T13:49:44;12.80;1.00
7000;DHT22;3540;53.242;10.408;2023-04-15T13:52:11;12.90;1.00
7000;DHT22;3540;53.242;10.408;2023-04-15T13:54:36;12.80;1.00
7000;DHT22;3540;53.242;10.408;2023-04-15T13:57:02;12.70;1.00
7000;DHT22;3540;53.242;10.408;2023-04-15T13:59:28;12.70;1.00
7000;DHT22;3540;53.242;10.408;2023-04-15T14:01:53;12.80;1.00
7000;DHT22;3540;53.242;10.408;2023-04-15T14:04:19;12.70;1.00
7000;DHT22;3540;53.242;10.408;2023-04-15T14:06:46;12.50;1.00
7000;DHT22;3540;53.242;10.408;2023-04-15T14:09:12;12.60;1.00
7000;DHT22;3540;53.242;10.408;2023-04-15T14:11:38;12.60;1.00
7000;DHT22;3540;53.242;10.408;2023-04-15T14:14:04;12.70;1.00
7000;DHT22;3540;53.242;10.408;2023-04-15T14:16:32;12.80;1.00
7000;DHT22;3540;53.242;10.408;2023-04-15T14:18:58;12.90;1.00
7000;DHT22;3540;53.242;10.408;2023-04-15T14:21:23;12.90;1.00
7000;DHT22;3540;53.242;10.408;2023-04-15T14:23:52;12.90;1.00
7000;DHT22;3540;53.242;10.408;2023-04-15T14:26:17;13.00;1.00
7000;DHT22;3540;53.242;10.408;2023-04-15T14:28:43;13.10;1.00
7000;DHT22;3540;53.242;10.408;2023-04-15T14:31:09;13.10;1.00
7000;DHT22;3540;53.242;10.408;2023-04-15T14:33:35;13.20;1.00
7000;DHT22;3540;53.242;10.408;2023-04-15T14:36:01;13.30;1.00
7000;DHT22;3540;53.242;10.408;2023-04-15T14:38:26;13.40;1.00
7000;DHT22;3540;53.242;10.408;2023-04-15T14:40:52;13.40;1.00
7000;DHT22;3540;53.242;10.408;2023-04-15T14:43:18;13.30;1.00
7000;DHT22;3540;53.242;10.408;2023-04-15T14:45:43;13.30;1.00
7000;DHT22;3540;53.242;10.408;2023-04-15T14:48:09;13.30;1.00
7000;DHT22;3540;53.242;10.408;2023-04-15T14:50:37;13.20;1.00
7000;DHT22;3540;53.242;10.408;2023-04-15T14:53:02;13.40;1.00
7000;DHT22;3540;53.242;10.408;2023-04-15T14:55:28;13.40;1.00
7000;DHT22;3540;53.242;10.408;2023-04-15T14:57:53;13.40;1.00
7000;DHT22;3540;53.242;10.408;2023-04-15T15:00:19;13.40;1.00
7000;DHT22;3540;53.242;10.408;2023-04-15T15:02:45;13.40;1.00
7000;DHT22;3540;53.242;10.408;2023-04-15T15:05:11;13.30;1.00
7000;DHT22;3540;53.242;10.408;2023-04-15T15:07:37;13.40;1.00
7000;DHT22;3540;53.242;10.408;2023-04-15T15:10:05;13.50;1.00
7000;DHT22;3540;53.242;10.408;2023-04-15T15:12:32;13.50;1.00
7000;DHT22;3540;53.242;10.408;2023-04-15T15:14:58;13.50;1.00
7000;DHT22;3540;53.242;10.408;2023-04-15T15:17:23;13.50;1.00
7000;DHT22;3540;53.242;10.408;2023-04-15T15:19:49;13.40;1.00
7000;DHT22;3540;53.242;10.408;2023-04-15T15:22:15;13.40;1.00
7000;DHT22;3540;53.242;10.408;2023-04-15T15:24:41;13.40;1.00
7000;DHT22;3540;53.242;10.408;2023-04-15T15:27:07;13.60;1.00
7000;DHT22;3540;53.242;10.408;2023-04-15T15:29:32;13.40;1.00
7000;DHT22;3540;53.242;10.408;2023-04-15T15:31:58;13.20;1.00
7000;DHT22;3540;53.242;10.408;2023-04-15T15:34:24;13.40;1.00
7000;DHT22;3540;53.242;10.408;2023-04-15T15:36:49;13.50;1.00
7000;DHT22;3540;53.242;10.408;2023-04-15T15:39:15;13.70;99.90
7000;DHT22;3540;53.242;10.408;2023-04-15T15:41:40;13.70;99.90
7000;DHT22;3540;53.242;10.408;2023-04-15T15:44:06;13.70;1.00
7000;DHT22;3540;53.242;10.408;2023-04-15T15:46:32;14.00;1.00
7000;DHT22;3540;53.242;10.408;2023-04-15T15:48:57;14.10;99.90
7000;DHT22;3540;53.242;10.408;2023-04-15T15:51:23;14.10;99.90
7000;DHT22;3540;53.242;10.408;2023-04-15T15:53:49;14.20;99.90
7000;DHT22;3540;53.242;10.408;2023-04-15T15:56:15;13.80;1.00
7000;DHT22;3540;53.242;10.408;2023-04-15T15:58:41;13.80;1.00
7000;DHT22;3540;53.242;10.408;2023-04-15T16:01:09;13.70;1.00
7000;DHT22;3540;53.242;10.408;2023-04-15T16:03:35;13.80;1.00
7000;DHT22;3540;53.242;10.408;2023-04-15T16:06:01;13.50;1.00
7000;DHT22;3540;53.242;10.408;2023-04-15T16:08:26;13.50;1.00
7000;DHT22;3540;53.242;10.408;2023-04-15T16:10:53;13.40;1.00
7000;DHT22;3540;53.242;10.408;2023-04-15T16:13:19;13.60;1.00
7000;DHT22;3540;53.242;10.408;2023-04-15T16:15:44;13.70;1.00
7000;DHT22;3540;53.242;10.408;2023-04-15T16:18:10;13.90;1.00
7000;DHT22;3540;53.242;10.408;2023-04-15T16:20:37;14.00;1.00